sensor_id;sensor_type;location;lat;lon;timestamp;temperature;humidity
12130;DHT22;6128;59.340;18.040;2023-02-20T00:00:26;-0.60;99.90
12130;DHT22;6128;59.340;18.040;2023-02-20T00:02:55;-0.60;99.90
12130;DHT22;6128;59.340;18.040;2023-02-20T00:05:22;-0.60;99.90
12130;DHT22;6128;59.340;18.040;2023-02-20T00:07:52;-0.60;99.90
12130;DHT22;6128;59.340;18.040;2023-02-20T00:10:20;-0.60;99.90
12130;DHT22;6128;59.340;18.040;2023-02-20T00:12:47;-0.60;99.90
12130;DHT22;6128;59.340;18.040;2023-02-20T00:15:16;-0.60;99.90
12130;DHT22;6128;59.340;18.040;2023-02-20T00:17:44;-0.60;99.90
12130;DHT22;6128;59.340;18.040;2023-02-20T00:20:15;-0.60;99.90
12130;DHT22;6128;59.340;18.040;2023-02-20T00:22:43;-0.60;99.90
12130;DHT22;6128;59.340;18.040;2023-02-20T00:25:10;-0.60;99.90
12130;DHT22;6128;59.340;18.040;2023-02-20T00:27:37;-0.60;99.90
12130;DHT22;6128;59.340;18.040;2023-02-20T00:30:05;-0.60;99.90
12130;DHT22;6128;59.340;18.040;2023-02-20T00:32:33;-0.60;99.90
12130;DHT22;6128;59.340;18.040;2023-02-20T00:35:00;-0.60;99.90
12130;DHT22;6128;59.340;18.040;2023-02-20T00:37:29;-0.60;99.90
12130;DHT22;6128;59.340;18.040;2023-02-20T00:39:56;-0.60;99.90
12130;DHT22;6128;59.340;18.040;2023-02-20T00:42:23;-0.60;99.90
12130;DHT22;6128;59.340;18.040;2023-02-20T00:44:51;-0.60;99.90
12130;DHT22;6128;59.340;18.040;2023-02-20T00:47:18;-0.60;99.90
12130;DHT22;6128;59.340;18.040;2023-02-20T00:49:45;-0.60;99.90
12130;DHT22;6128;59.340;18.040;2023-02-20T00:52:12;-0.60;99.90
12130;DHT22;6128;59.340;18.040;2023-02-20T00:54:41;-0.60;99.90
12130;DHT22;6128;59.340;18.040;2023-02-20T00:57:08;-0.60;99.90
12130;DHT22;6128;59.340;18.040;2023-02-20T00:59:35;-0.60;99.90
12130;DHT22;6128;59.340;18.040;2023-02-20T01:02:02;-0.60;99.90
12130;DHT22;6128;59.340;18.040;2023-02-20T01:04:29;-0.60;99.90
12130;DHT22;6128;59.340;18.040;2023-02-20T01:06:56;-0.60;99.90
12130;DHT22;6128;59.340;18.040;2023-02-20T01:09:23;-0.60;99.90
12130;DHT22;6128;59.340;18.040;2023-02-20T01:11:54;-0.50;99.90
12130;DHT22;6128;59.340;18.040;2023-02-20T01:14:21;-0.50;99.90
12130;DHT22;6128;59.340;18.040;2023-02-20T01:16:50;-0.60;99.90
12130;DHT22;6128;59.340;18.040;2023-02-20T01:19:18;-0.60;99.90
12130;DHT22;6128;59.340;18.040;2023-02-20T01:21:46;-0.50;99.90
12130;DHT22;6128;59.340;18.040;2023-02-20T01:24:14;-0.50;99.90
12130;DHT22;6128;59.340;18.040;2023-02-20T01:26:42;-0.60;99.90
12130;DHT22;6128;59.340;18.040;2023-02-20T01:29:11;-0.60;99.90
12130;DHT22;6128;59.340;18.040;2023-02-20T01:31:38;-0.60;99.90
12130;DHT22;6128;59.340;18.040;2023-02-20T01:34:05;-0.60;99.90
12130;DHT22;6128;59.340;18.040;2023-02-20T01:36:33;-0.60;99.90
12130;DHT22;6128;59.340;18.040;2023-02-20T01:39:00;-0.50;99.90
12130;DHT22;6128;59.340;18.040;2023-02-20T01:41:27;-0.50;99.90
12130;DHT22;6128;59.340;18.040;2023-02-20T01:43:54;-0.50;99.90
12130;DHT22;6128;59.340;18.040;2023-02-20T01:46:43;-0.50;99.90
12130;DHT22;6128;59.340;18.040;2023-02-20T01:49:15;-0.50;99.90
12130;DHT22;6128;59.340;18.040;2023-02-20T01:51:45;-0.50;99.90
12130;DHT22;6128;59.340;18.040;2023-02-20T01:54:16;-0.50;99.90
12130;DHT22;6128;59.340;18.040;2023-02-20T01:56:49;-0.50;99.90
12130;DHT22;6128;59.340;18.040;2023-02-20T01:59:20;-0.50;99.90
12130;DHT22;6128;59.340;18.040;2023-02-20T02:01:49;-0.50;99.90
12130;DHT22;6128;59.340;18.040;2023-02-20T02:04:17;-0.50;99.90
12130;DHT22;6128;59.340;18.040;2023-02-20T02:06:47;-0.50;99.90
12130;DHT22;6128;59.340;18.040;2023-02-20T02:09:20;-0.50;99.90
12130;DHT22;6128;59.340;18.040;2023-02-20T02:11:49;-0.40;99.90
12130;DHT22;6128;59.340;18.040;2023-02-20T02:14:17;-0.40;99.90
12130;DHT22;6128;59.340;18.040;2023-02-20T02:17:00;-0.40;99.90
12130;DHT22;6128;59.340;18.040;2023-02-20T02:19:52;-0.40;99.90
12130;DHT22;6128;59.340;18.040;2023-02-20T02:22:51;-0.40;99.90
12130;DHT22;6128;59.340;18.040;2023-02-20T02:25:33;-0.40;99.90
12130;DHT22;6128;59.340;18.040;2023-02-20T02:31:43;-0.40;99.90
12130;DHT22;6128;59.340;18.040;2023-02-20T02:34:57;-0.50;99.90
12130;DHT22;6128;59.340;18.040;2023-02-20T02:37:33;-0.50;99.90
12130;DHT22;6128;59.340;18.040;2023-02-20T02:40:09;-0.50;99.90
12130;DHT22;6128;59.340;18.040;2023-02-20T02:42:42;-0.50;99.90
12130;DHT22;6128;59.340;18.040;2023-02-20T02:45:17;-0.50;99.90
12130;DHT22;6128;59.340;18.040;2023-02-20T02:47:48;-0.50;99.90
12130;DHT22;6128;59.340;18.040;2023-02-20T02:50:20;-0.50;99.90
12130;DHT22;6128;59.340;18.040;2023-02-20T02:52:54;-0.60;99.90
12130;DHT22;6128;59.340;18.040;2023-02-20T02:55:23;-0.60;99.90
12130;DHT22;6128;59.340;18.040;2023-02-20T02:57:51;-0.60;99.90
12130;DHT22;6128;59.340;18.040;2023-02-20T03:00:22;-0.60;99.90
12130;DHT22;6128;59.340;18.040;2023-02-20T03:02:56;-0.70;99.90
12130;DHT22;6128;59.340;18.040;2023-02-20T03:05:28;-0.70;99.90
12130;DHT22;6128;59.340;18.040;2023-02-20T03:08:07;-0.70;99.90
12130;DHT22;6128;59.340;18.040;2023-02-20T03:10:39;-0.70;99.90
12130;DHT22;6128;59.340;18.040;2023-02-20T03:13:10;-0.70;99.90
12130;DHT22;6128;59.340;18.040;2023-02-20T03:15:40;-0.80;99.90
12130;DHT22;6128;59.340;18.040;2023-02-20T03:18:13;-0.80;99.90
12130;DHT22;6128;59.340;18.040;2023-02-20T03:20:44;-0.80;99.90
12130;DHT22;6128;59.340;18.040;2023-02-20T03:23:14;-0.80;99.90
12130;DHT22;6128;59.340;18.040;2023-02-20T03:25:49;-0.80;99.90
12130;DHT22;6128;59.340;18.040;2023-02-20T03:29:18;-0.80;99.90
12130;DHT22;6128;59.340;18.040;2023-02-20T03:31:52;-0.80;99.90
12130;DHT22;6128;59.340;18.040;2023-02-20T03:34:38;-0.80;99.90
12130;DHT22;6128;59.340;18.040;2023-02-20T03:37:25;-0.80;99.90
12130;DHT22;6128;59.340;18.040;2023-02-20T03:40:15;-0.70;99.90
12130;DHT22;6128;59.340;18.040;2023-02-20T03:43:02;-0.70;99.90
12130;DHT22;6128;59.340;18.040;2023-02-20T03:45:50;-0.80;99.90
12130;DHT22;6128;59.340;18.040;2023-02-20T03:48:21;-0.80;99.90
12130;DHT22;6128;59.340;18.040;2023-02-20T03:50:50;-0.80;99.90
12130;DHT22;6128;59.340;18.040;2023-02-20T03:53:17;-0.80;99.90
12130;DHT22;6128;59.340;18.040;2023-02-20T03:55:47;-0.70;99.90
12130;DHT22;6128;59.340;18.040;2023-02-20T03:58:17;-0.70;99.90
12130;DHT22;6128;59.340;18.040;2023-02-20T04:00:50;-0.70;99.90
12130;DHT22;6128;59.340;18.040;2023-02-20T04:03:20;-0.70;99.90
12130;DHT22;6128;59.340;18.040;2023-02-20T04:05:52;-0.70;99.90
12130;DHT22;6128;59.340;18.040;2023-02-20T04:08:22;-0.60;99.90
12130;DHT22;6128;59.340;18.040;2023-02-20T04:10:56;-0.60;99.90
12130;DHT22;6128;59.340;18.040;2023-02-20T04:13:28;-0.60;99.90
12130;DHT22;6128;59.340;18.040;2023-02-20T04:16:00;-0.60;99.90
12130;DHT22;6128;59.340;18.040;2023-02-20T04:18:28;-0.60;99.90
12130;DHT22;6128;59.340;18.040;2023-02-20T04:20:57;-0.60;99.90
12130;DHT22;6128;59.340;18.040;2023-02-20T04:23:26;-0.60;99.90
12130;DHT22;6128;59.340;18.040;2023-02-20T04:26:00;-0.60;99.90
12130;DHT22;6128;59.340;18.040;2023-02-20T04:28:28;-0.60;99.90
12130;DHT22;6128;59.340;18.040;2023-02-20T04:30:56;-0.60;99.90
12130;DHT22;6128;59.340;18.040;2023-02-20T04:33:24;-0.60;99.90
12130;DHT22;6128;59.340;18.040;2023-02-20T04:35:51;-0.60;99.90
12130;DHT22;6128;59.340;18.040;2023-02-20T04:38:19;-0.60;99.90
12130;DHT22;6128;59.340;18.040;2023-02-20T04:40:46;-0.60;99.90
12130;DHT22;6128;59.340;18.040;2023-02-20T04:43:16;-0.50;99.90
12130;DHT22;6128;59.340;18.040;2023-02-20T04:45:43;-0.50;99.90
12130;DHT22;6128;59.340;18.040;2023-02-20T04:48:11;-0.50;99.90
12130;DHT22;6128;59.340;18.040;2023-02-20T04:50:38;-0.50;99.90
12130;DHT22;6128;59.340;18.040;2023-02-20T04:53:06;-0.40;99.90
12130;DHT22;6128;59.340;18.040;2023-02-20T04:55:33;-0.40;99.90
12130;DHT22;6128;59.340;18.040;2023-02-20T04:58:03;-0.40;99.90
12130;DHT22;6128;59.340;18.040;2023-02-20T05:00:31;-0.40;99.90
12130;DHT22;6128;59.340;18.040;2023-02-20T05:02:58;-0.30;99.90
12130;DHT22;6128;59.340;18.040;2023-02-20T05:05:27;-0.30;99.90
12130;DHT22;6128;59.340;18.040;2023-02-20T05:07:55;-0.30;99.90
12130;DHT22;6128;59.340;18.040;2023-02-20T05:10:26;-0.30;99.90
12130;DHT22;6128;59.340;18.040;2023-02-20T05:12:53;-0.20;99.90
12130;DHT22;6128;59.340;18.040;2023-02-20T05:15:21;-0.20;99.90
12130;DHT22;6128;59.340;18.040;2023-02-20T05:17:50;-0.20;99.90
12130;DHT22;6128;59.340;18.040;2023-02-20T05:20:18;-0.10;99.90
12130;DHT22;6128;59.340;18.040;2023-02-20T05:22:45;-0.10;99.90
12130;DHT22;6128;59.340;18.040;2023-02-20T05:25:12;-0.10;99.90
12130;DHT22;6128;59.340;18.040;2023-02-20T05:27:40;-0.10;99.90
12130;DHT22;6128;59.340;18.040;2023-02-20T05:30:09;0.00;99.90
12130;DHT22;6128;59.340;18.040;2023-02-20T05:32:37;0.00;99.90
12130;DHT22;6128;59.340;18.040;2023-02-20T05:35:06;0.00;99.90
12130;DHT22;6128;59.340;18.040;2023-02-20T05:37:33;0.00;99.90
12130;DHT22;6128;59.340;18.040;2023-02-20T05:40:00;0.00;99.90
12130;DHT22;6128;59.340;18.040;2023-02-20T05:42:27;0.00;99.90
12130;DHT22;6128;59.340;18.040;2023-02-20T05:44:54;-0.10;99.90
12130;DHT22;6128;59.340;18.040;2023-02-20T05:47:21;-0.20;99.90
12130;DHT22;6128;59.340;18.040;2023-02-20T05:49:48;-0.20;99.90
12130;DHT22;6128;59.340;18.040;2023-02-20T05:52:17;-0.30;99.90
12130;DHT22;6128;59.340;18.040;2023-02-20T05:54:45;-0.40;99.90
12130;DHT22;6128;59.340;18.040;2023-02-20T05:57:12;-0.40;99.90
12130;DHT22;6128;59.340;18.040;2023-02-20T05:59:39;-0.40;99.90
12130;DHT22;6128;59.340;18.040;2023-02-20T06:02:06;-0.50;99.90
12130;DHT22;6128;59.340;18.040;2023-02-20T06:04:34;-0.50;99.90
12130;DHT22;6128;59.340;18.040;2023-02-20T06:07:02;-0.50;99.90
12130;DHT22;6128;59.340;18.040;2023-02-20T06:09:30;-0.60;99.90
12130;DHT22;6128;59.340;18.040;2023-02-20T06:11:58;-0.60;99.90
12130;DHT22;6128;59.340;18.040;2023-02-20T06:14:26;-0.60;99.90
12130;DHT22;6128;59.340;18.040;2023-02-20T06:16:55;-0.60;99.90
12130;DHT22;6128;59.340;18.040;2023-02-20T06:19:24;-0.70;99.90
12130;DHT22;6128;59.340;18.040;2023-02-20T06:21:52;-0.80;99.90
12130;DHT22;6128;59.340;18.040;2023-02-20T06:24:20;-0.80;99.90
12130;DHT22;6128;59.340;18.040;2023-02-20T06:26:48;-0.80;99.90
12130;DHT22;6128;59.340;18.040;2023-02-20T06:29:17;-0.80;99.90
12130;DHT22;6128;59.340;18.040;2023-02-20T06:31:45;-0.80;99.90
12130;DHT22;6128;59.340;18.040;2023-02-20T06:34:15;-0.80;99.90
12130;DHT22;6128;59.340;18.040;2023-02-20T06:36:58;-0.80;99.90
12130;DHT22;6128;59.340;18.040;2023-02-20T06:39:27;-0.80;99.90
12130;DHT22;6128;59.340;18.040;2023-02-20T06:41:56;-0.80;99.90
12130;DHT22;6128;59.340;18.040;2023-02-20T06:44:23;-0.80;99.90
12130;DHT22;6128;59.340;18.040;2023-02-20T06:46:51;-0.70;99.90
12130;DHT22;6128;59.340;18.040;2023-02-20T06:49:18;-0.70;99.90
12130;DHT22;6128;59.340;18.040;2023-02-20T06:51:45;-0.70;99.90
12130;DHT22;6128;59.340;18.040;2023-02-20T06:54:13;-0.70;99.90
12130;DHT22;6128;59.340;18.040;2023-02-20T06:56:40;-0.70;99.90
12130;DHT22;6128;59.340;18.040;2023-02-20T06:59:09;-0.60;99.90
12130;DHT22;6128;59.340;18.040;2023-02-20T07:01:38;-0.60;99.90
12130;DHT22;6128;59.340;18.040;2023-02-20T07:04:06;-0.50;99.90
12130;DHT22;6128;59.340;18.040;2023-02-20T07:06:34;-0.50;99.90
12130;DHT22;6128;59.340;18.040;2023-02-20T07:09:02;-0.50;99.90
12130;DHT22;6128;59.340;18.040;2023-02-20T07:11:29;-0.40;99.90
12130;DHT22;6128;59.340;18.040;2023-02-20T07:13:57;-0.30;99.90
12130;DHT22;6128;59.340;18.040;2023-02-20T07:16:26;-0.30;99.90
12130;DHT22;6128;59.340;18.040;2023-02-20T07:18:53;-0.30;99.90
12130;DHT22;6128;59.340;18.040;2023-02-20T07:21:20;-0.20;99.90
12130;DHT22;6128;59.340;18.040;2023-02-20T07:23:47;-0.20;99.90
12130;DHT22;6128;59.340;18.040;2023-02-20T07:26:19;-0.10;99.90
12130;DHT22;6128;59.340;18.040;2023-02-20T07:28:56;-0.10;99.90
12130;DHT22;6128;59.340;18.040;2023-02-20T07:31:27;0.10;99.90
12130;DHT22;6128;59.340;18.040;2023-02-20T07:33:54;0.10;99.90
12130;DHT22;6128;59.340;18.040;2023-02-20T07:36:22;0.10;99.90
12130;DHT22;6128;59.340;18.040;2023-02-20T07:38:53;0.20;99.90
12130;DHT22;6128;59.340;18.040;2023-02-20T07:41:21;0.20;99.90
12130;DHT22;6128;59.340;18.040;2023-02-20T07:43:48;0.20;99.90
12130;DHT22;6128;59.340;18.040;2023-02-20T07:46:16;0.30;99.90
12130;DHT22;6128;59.340;18.040;2023-02-20T07:48:44;0.40;99.90
12130;DHT22;6128;59.340;18.040;2023-02-20T07:51:11;0.40;99.90
12130;DHT22;6128;59.340;18.040;2023-02-20T07:53:38;0.50;99.90
12130;DHT22;6128;59.340;18.040;2023-02-20T07:56:06;0.60;99.90
12130;DHT22;6128;59.340;18.040;2023-02-20T07:58:33;0.70;99.90
12130;DHT22;6128;59.340;18.040;2023-02-20T08:01:00;0.70;99.90
12130;DHT22;6128;59.340;18.040;2023-02-20T08:03:27;0.80;99.90
12130;DHT22;6128;59.340;18.040;2023-02-20T08:05:55;0.80;99.90
12130;DHT22;6128;59.340;18.040;2023-02-20T08:08:23;0.90;99.90
12130;DHT22;6128;59.340;18.040;2023-02-20T08:10:50;1.00;99.90
12130;DHT22;6128;59.340;18.040;2023-02-20T08:13:18;1.00;99.90
12130;DHT22;6128;59.340;18.040;2023-02-20T08:15:45;1.10;99.90
12130;DHT22;6128;59.340;18.040;2023-02-20T08:18:13;1.10;99.90
12130;DHT22;6128;59.340;18.040;2023-02-20T08:20:40;1.20;99.90
12130;DHT22;6128;59.340;18.040;2023-02-20T08:23:15;1.20;99.90
12130;DHT22;6128;59.340;18.040;2023-02-20T08:25:43;1.20;99.90
12130;DHT22;6128;59.340;18.040;2023-02-20T08:28:10;1.30;99.90
12130;DHT22;6128;59.340;18.040;2023-02-20T08:30:38;1.30;99.90
12130;DHT22;6128;59.340;18.040;2023-02-20T08:33:06;1.30;99.90
12130;DHT22;6128;59.340;18.040;2023-02-20T08:35:34;1.40;99.90
12130;DHT22;6128;59.340;18.040;2023-02-20T08:38:01;1.40;99.90
12130;DHT22;6128;59.340;18.040;2023-02-20T08:40:30;1.40;99.90
12130;DHT22;6128;59.340;18.040;2023-02-20T08:42:58;1.40;99.90
12130;DHT22;6128;59.340;18.040;2023-02-20T08:45:25;1.40;99.90
12130;DHT22;6128;59.340;18.040;2023-02-20T08:47:56;1.40;99.90
12130;DHT22;6128;59.340;18.040;2023-02-20T08:50:26;1.40;99.90
12130;DHT22;6128;59.340;18.040;2023-02-20T08:52:53;1.40;99.90
12130;DHT22;6128;59.340;18.040;2023-02-20T08:55:20;1.40;99.90
12130;DHT22;6128;59.340;18.040;2023-02-20T08:57:49;1.40;99.90
12130;DHT22;6128;59.340;18.040;2023-02-20T09:00:17;1.40;99.90
12130;DHT22;6128;59.340;18.040;2023-02-20T09:02:46;1.40;99.90
12130;DHT22;6128;59.340;18.040;2023-02-20T09:05:13;1.40;99.90
12130;DHT22;6128;59.340;18.040;2023-02-20T09:07:41;1.40;99.90
12130;DHT22;6128;59.340;18.040;2023-02-20T09:10:08;1.40;99.90
12130;DHT22;6128;59.340;18.040;2023-02-20T09:12:35;1.40;99.90
12130;DHT22;6128;59.340;18.040;2023-02-20T09:15:06;1.40;99.90
12130;DHT22;6128;59.340;18.040;2023-02-20T09:17:33;1.40;99.90
12130;DHT22;6128;59.340;18.040;2023-02-20T09:20:01;1.30;99.90
12130;DHT22;6128;59.340;18.040;2023-02-20T09:22:28;1.40;99.90
12130;DHT22;6128;59.340;18.040;2023-02-20T09:24:55;1.30;99.90
12130;DHT22;6128;59.340;18.040;2023-02-20T09:27:22;1.30;99.90
12130;DHT22;6128;59.340;18.040;2023-02-20T09:29:50;1.30;99.90
12130;DHT22;6128;59.340;18.040;2023-02-20T09:32:18;1.30;99.90
12130;DHT22;6128;59.340;18.040;2023-02-20T09:34:45;1.30;99.90
12130;DHT22;6128;59.340;18.040;2023-02-20T09:37:13;1.30;99.90
12130;DHT22;6128;59.340;18.040;2023-02-20T09:39:42;1.30;99.90
12130;DHT22;6128;59.340;18.040;2023-02-20T09:42:21;1.30;99.90
12130;DHT22;6128;59.340;18.040;2023-02-20T09:44:58;1.30;99.90
12130;DHT22;6128;59.340;18.040;2023-02-20T09:47:41;1.30;99.90
12130;DHT22;6128;59.340;18.040;2023-02-20T09:50:14;1.30;99.90
12130;DHT22;6128;59.340;18.040;2023-02-20T09:52:45;1.30;99.90
12130;DHT22;6128;59.340;18.040;2023-02-20T09:55:20;1.30;99.90
12130;DHT22;6128;59.340;18.040;2023-02-20T09:57:49;1.30;99.90
12130;DHT22;6128;59.340;18.040;2023-02-20T10:00:26;1.30;99.90
12130;DHT22;6128;59.340;18.040;2023-02-20T10:03:05;1.30;99.90
12130;DHT22;6128;59.340;18.040;2023-02-20T10:05:35;1.40;99.90
12130;DHT22;6128;59.340;18.040;2023-02-20T10:08:03;1.40;99.90
12130;DHT22;6128;59.340;18.040;2023-02-20T10:10:35;1.40;99.90
12130;DHT22;6128;59.340;18.040;2023-02-20T10:13:12;1.40;99.90
12130;DHT22;6128;59.340;18.040;2023-02-20T10:15:47;1.40;99.90
12130;DHT22;6128;59.340;18.040;2023-02-20T10:18:26;1.50;99.90
12130;DHT22;6128;59.340;18.040;2023-02-20T10:21:00;1.50;99.90
12130;DHT22;6128;59.340;18.040;2023-02-20T10:23:37;1.60;99.90
12130;DHT22;6128;59.340;18.040;2023-02-20T10:26:13;1.70;99.90
12130;DHT22;6128;59.340;18.040;2023-02-20T10:28:42;1.80;99.90
12130;DHT22;6128;59.340;18.040;2023-02-20T10:31:23;1.80;99.90
12130;DHT22;6128;59.340;18.040;2023-02-20T10:33:57;1.90;99.90
12130;DHT22;6128;59.340;18.040;2023-02-20T10:36:29;1.90;99.90
12130;DHT22;6128;59.340;18.040;2023-02-20T10:39:03;2.00;99.90
12130;DHT22;6128;59.340;18.040;2023-02-20T10:41:34;2.00;99.90
12130;DHT22;6128;59.340;18.040;2023-02-20T10:44:09;2.10;99.90
12130;DHT22;6128;59.340;18.040;2023-02-20T10:46:47;2.10;99.90
12130;DHT22;6128;59.340;18.040;2023-02-20T10:49:24;2.10;99.90
12130;DHT22;6128;59.340;18.040;2023-02-20T10:51:57;2.10;99.90
12130;DHT22;6128;59.340;18.040;2023-02-20T10:54:32;2.10;99.90
12130;DHT22;6128;59.340;18.040;2023-02-20T10:57:04;2.20;99.90
12130;DHT22;6128;59.340;18.040;2023-02-20T10:59:37;2.20;99.90
12130;DHT22;6128;59.340;18.040;2023-02-20T11:02:15;2.20;99.90
12130;DHT22;6128;59.340;18.040;2023-02-20T11:04:49;2.30;99.90
12130;DHT22;6128;59.340;18.040;2023-02-20T11:07:19;2.30;99.90
12130;DHT22;6128;59.340;18.040;2023-02-20T11:09:48;2.40;99.90
12130;DHT22;6128;59.340;18.040;2023-02-20T11:12:23;2.50;99.90
12130;DHT22;6128;59.340;18.040;2023-02-20T11:14:54;2.50;99.90
12130;DHT22;6128;59.340;18.040;2023-02-20T11:17:23;2.50;99.90
12130;DHT22;6128;59.340;18.040;2023-02-20T11:19:55;2.60;99.90
12130;DHT22;6128;59.340;18.040;2023-02-20T11:22:40;2.60;99.90
12130;DHT22;6128;59.340;18.040;2023-02-20T11:25:17;2.70;99.90
12130;DHT22;6128;59.340;18.040;2023-02-20T11:27:47;2.70;99.90
12130;DHT22;6128;59.340;18.040;2023-02-20T11:30:25;2.80;99.90
12130;DHT22;6128;59.340;18.040;2023-02-20T11:33:00;2.80;99.90
12130;DHT22;6128;59.340;18.040;2023-02-20T11:35:32;2.90;99.90
12130;DHT22;6128;59.340;18.040;2023-02-20T11:38:30;2.90;99.90
12130;DHT22;6128;59.340;18.040;2023-02-20T11:41:11;3.00;99.90
12130;DHT22;6128;59.340;18.040;2023-02-20T11:43:41;3.00;99.90
12130;DHT22;6128;59.340;18.040;2023-02-20T11:46:14;3.10;99.90
12130;DHT22;6128;59.340;18.040;2023-02-20T11:49:00;3.10;99.90
12130;DHT22;6128;59.340;18.040;2023-02-20T11:51:36;3.20;99.90
12130;DHT22;6128;59.340;18.040;2023-02-20T11:54:13;3.20;99.90
12130;DHT22;6128;59.340;18.040;2023-02-20T11:56:58;3.30;99.90
12130;DHT22;6128;59.340;18.040;2023-02-20T11:59:32;3.40;99.90
12130;DHT22;6128;59.340;18.040;2023-02-20T12:02:21;3.50;99.90
12130;DHT22;6128;59.340;18.040;2023-02-20T12:05:04;3.60;99.90
12130;DHT22;6128;59.340;18.040;2023-02-20T12:07:39;3.70;99.90
12130;DHT22;6128;59.340;18.040;2023-02-20T12:10:19;3.70;99.90
12130;DHT22;6128;59.340;18.040;2023-02-20T12:12:47;3.80;99.90
12130;DHT22;6128;59.340;18.040;2023-02-20T12:15:17;3.80;99.90
12130;DHT22;6128;59.340;18.040;2023-02-20T12:17:58;3.80;99.90
12130;DHT22;6128;59.340;18.040;2023-02-20T12:20:30;3.80;99.90
12130;DHT22;6128;59.340;18.040;2023-02-20T12:23:11;3.90;99.90
12130;DHT22;6128;59.340;18.040;2023-02-20T12:25:50;3.90;99.90
12130;DHT22;6128;59.340;18.040;2023-02-20T12:28:26;3.90;99.90
12130;DHT22;6128;59.340;18.040;2023-02-20T12:31:09;3.90;99.90
12130;DHT22;6128;59.340;18.040;2023-02-20T12:33:57;4.00;99.90
12130;DHT22;6128;59.340;18.040;2023-02-20T12:36:30;4.00;99.90
12130;DHT22;6128;59.340;18.040;2023-02-20T12:39:05;4.10;99.90
12130;DHT22;6128;59.340;18.040;2023-02-20T12:41:54;4.10;99.90
12130;DHT22;6128;59.340;18.040;2023-02-20T12:44:38;4.10;99.90
12130;DHT22;6128;59.340;18.040;2023-02-20T12:47:18;4.10;99.90
12130;DHT22;6128;59.340;18.040;2023-02-20T12:50:10;4.10;99.90
12130;DHT22;6128;59.340;18.040;2023-02-20T12:52:52;4.10;99.90
12130;DHT22;6128;59.340;18.040;2023-02-20T12:55:31;4.10;99.90
12130;DHT22;6128;59.340;18.040;2023-02-20T12:58:13;4.10;99.90
12130;DHT22;6128;59.340;18.040;2023-02-20T13:00:45;4.10;99.90
12130;DHT22;6128;59.340;18.040;2023-02-20T13:03:17;4.10;99.90
12130;DHT22;6128;59.340;18.040;2023-02-20T13:05:47;4.20;99.90
12130;DHT22;6128;59.340;18.040;2023-02-20T13:08:20;4.30;99.90
12130;DHT22;6128;59.340;18.040;2023-02-20T13:10:55;4.30;99.90
12130;DHT22;6128;59.340;18.040;2023-02-20T13:13:23;4.40;99.90
12130;DHT22;6128;59.340;18.040;2023-02-20T13:15:57;4.50;99.90
12130;DHT22;6128;59.340;18.040;2023-02-20T13:18:34;4.50;99.90
12130;DHT22;6128;59.340;18.040;2023-02-20T13:21:07;4.50;99.90
12130;DHT22;6128;59.340;18.040;2023-02-20T13:23:37;4.40;99.90
12130;DHT22;6128;59.340;18.040;2023-02-20T13:29:17;4.40;99.90
12130;DHT22;6128;59.340;18.040;2023-02-20T13:31:47;4.40;99.90
12130;DHT22;6128;59.340;18.040;2023-02-20T13:34:30;4.30;99.90
12130;DHT22;6128;59.340;18.040;2023-02-20T13:36:58;4.30;99.90
12130;DHT22;6128;59.340;18.040;2023-02-20T13:39:43;4.30;99.90
12130;DHT22;6128;59.340;18.040;2023-02-20T13:42:28;4.20;99.90
12130;DHT22;6128;59.340;18.040;2023-02-20T13:45:00;4.20;99.90
12130;DHT22;6128;59.340;18.040;2023-02-20T13:47:33;4.20;99.90
12130;DHT22;6128;59.340;18.040;2023-02-20T13:50:31;4.20;99.90
12130;DHT22;6128;59.340;18.040;2023-02-20T13:53:03;4.20;99.90
12130;DHT22;6128;59.340;18.040;2023-02-20T13:55:31;4.20;99.90
12130;DHT22;6128;59.340;18.040;2023-02-20T13:58:07;4.10;99.90
12130;DHT22;6128;59.340;18.040;2023-02-20T14:00:45;4.20;99.90
12130;DHT22;6128;59.340;18.040;2023-02-20T14:03:19;4.20;99.90
12130;DHT22;6128;59.340;18.040;2023-02-20T14:06:00;4.20;99.90
12130;DHT22;6128;59.340;18.040;2023-02-20T14:08:28;4.20;99.90
12130;DHT22;6128;59.340;18.040;2023-02-20T14:11:03;4.20;99.90
12130;DHT22;6128;59.340;18.040;2023-02-20T14:13:31;4.10;99.90
12130;DHT22;6128;59.340;18.040;2023-02-20T14:16:00;4.10;99.90
12130;DHT22;6128;59.340;18.040;2023-02-20T14:18:30;4.10;99.90
12130;DHT22;6128;59.340;18.040;2023-02-20T14:21:06;4.10;99.90
12130;DHT22;6128;59.340;18.040;2023-02-20T14:23:35;4.10;99.90
12130;DHT22;6128;59.340;18.040;2023-02-20T14:26:05;4.10;99.90
12130;DHT22;6128;59.340;18.040;2023-02-20T14:28:33;4.10;99.90
12130;DHT22;6128;59.340;18.040;2023-02-20T14:31:17;4.10;99.90
12130;DHT22;6128;59.340;18.040;2023-02-20T14:33:46;4.10;99.90
12130;DHT22;6128;59.340;18.040;2023-02-20T14:36:38;4.10;99.90
12130;DHT22;6128;59.340;18.040;2023-02-20T14:39:32;4.00;99.90
12130;DHT22;6128;59.340;18.040;2023-02-20T14:42:04;4.00;99.90
12130;DHT22;6128;59.340;18.040;2023-02-20T14:44:33;4.00;99.90
12130;DHT22;6128;59.340;18.040;2023-02-20T14:47:06;4.00;99.90
12130;DHT22;6128;59.340;18.040;2023-02-20T14:49:35;4.00;99.90
12130;DHT22;6128;59.340;18.040;2023-02-20T14:52:18;4.00;99.90
12130;DHT22;6128;59.340;18.040;2023-02-20T14:54:56;3.90;99.90
12130;DHT22;6128;59.340;18.040;2023-02-20T14:57:25;3.90;99.90
12130;DHT22;6128;59.340;18.040;2023-02-20T15:00:07;3.90;99.90
12130;DHT22;6128;59.340;18.040;2023-02-20T15:02:40;3.90;99.90
12130;DHT22;6128;59.340;18.040;2023-02-20T15:05:09;3.80;99.90
12130;DHT22;6128;59.340;18.040;2023-02-20T15:07:39;3.80;99.90
12130;DHT22;6128;59.340;18.040;2023-02-20T15:10:32;3.80;99.90
12130;DHT22;6128;59.340;18.040;2023-02-20T15:13:04;3.80;99.90
12130;DHT22;6128;59.340;18.040;2023-02-20T15:15:37;3.70;99.90
12130;DHT22;6128;59.340;18.040;2023-02-20T15:18:08;3.70;99.90
12130;DHT22;6128;59.340;18.040;2023-02-20T15:20:38;3.70;99.90
12130;DHT22;6128;59.340;18.040;2023-02-20T15:23:23;3.70;99.90
12130;DHT22;6128;59.340;18.040;2023-02-20T15:25:50;3.60;99.90
12130;DHT22;6128;59.340;18.040;2023-02-20T15:28:26;3.60;99.90
12130;DHT22;6128;59.340;18.040;2023-02-20T15:31:14;3.60;99.90
12130;DHT22;6128;59.340;18.040;2023-02-20T15:33:50;3.50;99.90
12130;DHT22;6128;59.340;18.040;2023-02-20T15:36:20;3.50;99.90
12130;DHT22;6128;59.340;18.040;2023-02-20T15:38:50;3.40;99.90
12130;DHT22;6128;59.340;18.040;2023-02-20T15:41:18;3.40;99.90
12130;DHT22;6128;59.340;18.040;2023-02-20T15:43:46;3.40;99.90
12130;DHT22;6128;59.340;18.040;2023-02-20T15:46:14;3.30;99.90
12130;DHT22;6128;59.340;18.040;2023-02-20T15:48:41;3.30;99.90
12130;DHT22;6128;59.340;18.040;2023-02-20T15:51:12;3.30;99.90
12130;DHT22;6128;59.340;18.040;2023-02-20T15:53:43;3.30;99.90
12130;DHT22;6128;59.340;18.040;2023-02-20T15:56:10;3.20;99.90
12130;DHT22;6128;59.340;18.040;2023-02-20T15:58:41;3.20;99.90
12130;DHT22;6128;59.340;18.040;2023-02-20T16:01:09;3.10;99.90
12130;DHT22;6128;59.340;18.040;2023-02-20T16:03:37;3.10;99.90
12130;DHT22;6128;59.340;18.040;2023-02-20T16:06:05;3.10;99.90
12130;DHT22;6128;59.340;18.040;2023-02-20T16:08:34;3.20;99.90
12130;DHT22;6128;59.340;18.040;2023-02-20T16:11:02;3.20;99.90
12130;DHT22;6128;59.340;18.040;2023-02-20T16:13:33;3.20;99.90
12130;DHT22;6128;59.340;18.040;2023-02-20T16:16:06;3.20;99.90